createdAt,value
2023-02-12T00:01:33.589Z,3.30
2023-02-12T00:04:01.775Z,3.30
2023-02-12T00:06:29.582Z,3.20
2023-02-12T00:08:58.413Z,3.20
2023-02-12T00:11:29.725Z,3.20
2023-02-12T00:13:58.812Z,3.12
2023-02-12T00:16:29.175Z,3.20
2023-02-12T00:18:59.677Z,3.20
2023-02-12T00:21:28.045Z,3.26
2023-02-12T00:23:57.641Z,3.24
2023-02-12T00:26:25.528Z,3.20
2023-02-12T00:28:54.157Z,3.20
2023-02-12T00:31:26.120Z,3.20
2023-02-12T00:33:54.587Z,3.20
2023-02-12T00:36:26.888Z,3.20
2023-02-12T00:38:56.931Z,3.24
2023-02-12T00:41:26.085Z,3.30
2023-02-12T00:43:54.099Z,3.30
2023-02-12T00:46:22.407Z,3.30
2023-02-12T00:48:50.403Z,3.24
2023-02-12T00:51:18.256Z,3.20
2023-02-12T00:53:46.098Z,3.20
2023-02-12T00:56:13.992Z,3.20
2023-02-12T00:58:41.860Z,3.18
2023-02-12T01:01:09.729Z,3.12
2023-02-12T01:03:38.750Z,3.10
2023-02-12T01:06:07.240Z,3.10
2023-02-12T01:08:35.789Z,3.10
2023-02-12T01:11:06.441Z,3.10
2023-02-12T01:13:35.941Z,3.10
2023-02-12T01:16:22.463Z,3.10
2023-02-12T01:18:55.850Z,3.10
2023-02-12T01:21:29.380Z,3.10
2023-02-12T01:23:58.984Z,3.12
2023-02-12T01:26:29.635Z,3.20
2023-02-12T01:29:04.756Z,3.12
2023-02-12T01:31:38.143Z,3.10
2023-02-12T01:34:07.946Z,3.00
2023-02-12T01:36:36.399Z,3.00
2023-02-12T01:39:06.274Z,2.96
2023-02-12T01:41:40.407Z,2.98
2023-02-12T01:44:19.386Z,2.92
2023-02-12T01:46:51.016Z,2.90
2023-02-12T01:49:43.131Z,2.90
2023-02-12T01:52:20.862Z,2.90
2023-02-12T01:54:52.104Z,2.90
2023-02-12T01:57:20.412Z,2.90
2023-02-12T01:59:53.711Z,2.90
2023-02-12T02:02:21.644Z,2.88
2023-02-12T02:04:57.567Z,2.78
2023-02-12T02:07:25.543Z,2.70
2023-02-12T02:09:54.014Z,2.60
2023-02-12T02:12:40.574Z,2.50
2023-02-12T02:15:09.553Z,2.48
2023-02-12T02:17:50.322Z,2.40
2023-02-12T02:20:48.678Z,2.40
2023-02-12T02:23:45.651Z,2.20
2023-02-12T02:26:41.903Z,2.00
2023-02-12T02:29:47.654Z,1.90
2023-02-12T02:32:19.940Z,1.70
2023-02-12T02:35:02.760Z,1.70
2023-02-12T02:37:47.834Z,1.60
2023-02-12T02:40:39.243Z,1.50
2023-02-12T02:43:20.460Z,1.40
2023-02-12T02:45:58.918Z,1.40
2023-02-12T02:48:37.276Z,1.40
2023-02-12T02:51:14.680Z,1.30
2023-02-12T02:53:54.808Z,1.16
2023-02-12T02:56:25.149Z,1.10
2023-02-12T02:59:11.649Z,1.00
2023-02-12T03:02:03.426Z,0.90
2023-02-12T03:04:39.020Z,0.90
2023-02-12T03:07:15.096Z,0.80
2023-02-12T03:10:01.136Z,0.70
2023-02-12T03:13:06.976Z,0.60
2023-02-12T03:15:50.829Z,0.60
2023-02-12T03:18:30.928Z,0.50
2023-02-12T03:21:06.540Z,0.50
2023-02-12T03:23:53.136Z,0.40
2023-02-12T03:26:42.687Z,0.40
2023-02-12T03:29:11.453Z,0.30
2023-02-12T03:32:00.878Z,0.30
2023-02-12T03:34:51.619Z,0.20
2023-02-12T03:37:31.544Z,0.20
2023-02-12T03:40:20.807Z,0.10
2023-02-12T03:43:37.351Z,0.10
2023-02-12T03:46:22.526Z,0.10
2023-02-12T03:49:07.822Z,0.00
2023-02-12T03:51:40.730Z,0.00
2023-02-12T03:54:12.441Z,0.00
2023-02-12T03:57:03.266Z,0.00
2023-02-12T03:59:31.352Z,0.00
2023-02-12T04:02:00.535Z,0.00
2023-02-12T04:04:29.249Z,0.00
2023-02-12T04:06:58.265Z,0.00
2023-02-12T04:09:28.298Z,0.00
2023-02-12T04:12:28.166Z,-0.10
2023-02-12T04:15:17.592Z,-0.10
2023-02-12T04:18:00.970Z,-0.10
2023-02-12T04:21:03.594Z,-0.10
2023-02-12T04:23:57.502Z,-0.10
2023-02-12T04:26:52.826Z,-0.10
2023-02-12T04:29:48.468Z,-0.20
2023-02-12T04:32:35.650Z,-0.20
2023-02-12T04:35:14.404Z,-0.20
2023-02-12T04:38:08.984Z,-0.20
2023-02-12T04:40:40.961Z,-0.24
2023-02-12T04:43:09.050Z,-0.30
2023-02-12T04:45:38.039Z,-0.30
2023-02-12T04:48:07.004Z,-0.30
2023-02-12T04:50:45.361Z,-0.30
2023-02-12T04:53:13.832Z,-0.36
2023-02-12T04:55:42.067Z,-0.40
2023-02-12T04:58:10.168Z,-0.40
2023-02-12T05:00:40.463Z,-0.40
2023-02-12T05:03:08.368Z,-0.40
2023-02-12T05:05:36.285Z,-0.46
2023-02-12T05:08:04.248Z,-0.48
2023-02-12T05:10:32.077Z,-0.44
2023-02-12T05:13:00.141Z,-0.46
2023-02-12T05:15:28.156Z,-0.50
2023-02-12T05:17:56.006Z,-0.50
2023-02-12T05:20:23.822Z,-0.50
2023-02-12T05:22:53.849Z,-0.50
2023-02-12T05:25:22.603Z,-0.50
2023-02-12T05:27:50.469Z,-0.50
2023-02-12T05:30:18.495Z,-0.50
2023-02-12T05:32:46.335Z,-0.50
2023-02-12T05:35:14.381Z,-0.50
2023-02-12T05:37:44.161Z,-0.50
2023-02-12T05:40:12.584Z,-0.50
2023-02-12T05:42:40.436Z,-0.50
2023-02-12T05:45:08.826Z,-0.50
2023-02-12T05:47:36.716Z,-0.50
2023-02-12T05:50:05.264Z,-0.50
2023-02-12T05:52:34.484Z,-0.50
2023-02-12T05:55:02.929Z,-0.50
2023-02-12T05:57:30.876Z,-0.50
2023-02-12T05:59:58.684Z,-0.50
2023-02-12T06:02:26.611Z,-0.50
2023-02-12T06:04:54.724Z,-0.50
2023-02-12T06:07:23.304Z,-0.52
2023-02-12T06:09:51.176Z,-0.56
2023-02-12T06:12:19.039Z,-0.50
2023-02-12T06:14:47.352Z,-0.50
2023-02-12T06:17:15.206Z,-0.50
2023-02-12T06:19:43.122Z,-0.50
2023-02-12T06:22:10.964Z,-0.50
2023-02-12T06:24:38.784Z,-0.50
2023-02-12T06:27:06.715Z,-0.50
2023-02-12T06:29:34.679Z,-0.46
2023-02-12T06:32:02.704Z,-0.40
2023-02-12T06:34:30.785Z,-0.40
2023-02-12T06:36:58.574Z,-0.40
2023-02-12T06:39:26.463Z,-0.32
2023-02-12T06:41:54.625Z,-0.30
2023-02-12T06:44:22.799Z,-0.30
2023-02-12T06:46:50.722Z,-0.24
2023-02-12T06:49:18.799Z,-0.20
2023-02-12T06:51:46.634Z,-0.16
2023-02-12T06:54:18.170Z,-0.10
2023-02-12T06:56:46.063Z,0.00
2023-02-12T06:59:16.871Z,0.10
2023-02-12T07:01:45.013Z,0.10
2023-02-12T07:04:13.788Z,0.20
2023-02-12T07:06:42.016Z,0.30
2023-02-12T07:09:09.975Z,0.34
2023-02-12T07:11:38.962Z,0.50
2023-02-12T07:14:07.669Z,0.60
2023-02-12T07:16:35.675Z,0.80
2023-02-12T07:19:03.808Z,0.90
2023-02-12T07:21:32.318Z,1.10
2023-02-12T07:24:00.312Z,1.28
2023-02-12T07:26:28.257Z,1.40
2023-02-12T07:28:58.763Z,1.52
2023-02-12T07:31:26.790Z,1.70
2023-02-12T07:33:57.589Z,1.90
2023-02-12T07:36:29.634Z,2.00
2023-02-12T07:38:59.107Z,2.02
2023-02-12T07:41:31.422Z,2.02
2023-02-12T07:44:07.717Z,2.10
2023-02-12T07:46:48.597Z,2.20
2023-02-12T07:49:22.488Z,2.36
2023-02-12T07:51:51.245Z,2.46
2023-02-12T07:54:19.271Z,2.50
2023-02-12T07:56:47.536Z,2.40
2023-02-12T07:59:18.717Z,2.30
2023-02-12T08:01:51.167Z,2.20
2023-02-12T08:04:23.512Z,2.20
2023-02-12T08:06:54.530Z,2.30
2023-02-12T08:09:28.288Z,2.30
2023-02-12T08:11:56.515Z,2.32
2023-02-12T08:14:24.378Z,2.32
2023-02-12T08:16:53.393Z,2.40
2023-02-12T08:19:26.148Z,2.40
2023-02-12T08:21:58.592Z,2.50
2023-02-12T08:24:26.495Z,2.50
2023-02-12T08:26:54.402Z,2.50
2023-02-12T08:29:29.839Z,2.60
2023-02-12T08:32:02.070Z,2.80
2023-02-12T08:34:34.750Z,2.98
2023-02-12T08:37:06.393Z,3.00
2023-02-12T08:39:34.566Z,3.10
2023-02-12T08:42:02.554Z,3.28
2023-02-12T08:44:30.443Z,3.40
2023-02-12T08:46:58.442Z,3.50
2023-02-12T08:49:29.933Z,3.64
2023-02-12T08:52:01.997Z,3.70
2023-02-12T08:54:31.748Z,3.70
2023-02-12T08:57:02.438Z,3.70
2023-02-12T08:59:31.717Z,3.70
2023-02-12T09:02:00.893Z,3.70
2023-02-12T09:04:29.596Z,3.60
2023-02-12T09:06:57.922Z,3.70
2023-02-12T09:09:26.361Z,3.70
2023-02-12T09:11:54.540Z,3.80
2023-02-12T09:14:24.479Z,3.80
2023-02-12T09:16:54.639Z,3.80
2023-02-12T09:19:23.182Z,3.80
2023-02-12T09:21:56.887Z,3.80
2023-02-12T09:24:28.006Z,3.80
2023-02-12T09:26:56.847Z,3.80
2023-02-12T09:29:24.776Z,3.90
2023-02-12T09:31:52.915Z,3.90
2023-02-12T09:34:21.027Z,3.90
2023-02-12T09:36:48.933Z,4.00
2023-02-12T09:39:16.855Z,4.00
2023-02-12T09:42:04.144Z,4.18
2023-02-12T09:44:50.060Z,4.30
2023-02-12T09:47:44.177Z,4.40
2023-02-12T09:50:34.296Z,4.50
2023-02-12T09:53:03.275Z,4.50
2023-02-12T09:55:35.210Z,4.52
2023-02-12T09:58:14.547Z,4.60
2023-02-12T10:00:42.581Z,4.60
2023-02-12T10:03:17.372Z,4.60
2023-02-12T10:05:56.078Z,4.70
2023-02-12T10:09:03.979Z,4.70
2023-02-12T10:11:46.394Z,4.80
2023-02-12T10:14:44.437Z,4.84
2023-02-12T10:17:30.402Z,4.90
2023-02-12T10:20:48.043Z,5.02
2023-02-12T10:23:58.363Z,5.10
2023-02-12T10:26:38.253Z,5.30
2023-02-12T10:29:18.115Z,5.38
2023-02-12T10:31:53.452Z,5.48
2023-02-12T10:34:26.318Z,5.50
2023-02-12T10:37:08.866Z,5.50
2023-02-12T10:39:49.625Z,5.58
2023-02-12T10:42:39.620Z,5.60
2023-02-12T10:45:19.472Z,5.60
2023-02-12T10:47:54.207Z,5.68
2023-02-12T10:50:48.866Z,5.70
2023-02-12T10:53:29.837Z,5.70
2023-02-12T10:56:13.020Z,5.80
2023-02-12T10:58:55.852Z,5.70
2023-02-12T11:01:35.185Z,5.60
2023-02-12T11:04:29.608Z,5.68
2023-02-12T11:07:09.006Z,5.72
2023-02-12T11:09:46.827Z,5.80
2023-02-12T11:12:43.679Z,5.90
2023-02-12T11:15:23.576Z,5.96
2023-02-12T11:18:05.542Z,6.00
2023-02-12T11:20:50.090Z,6.20
2023-02-12T11:23:38.067Z,6.30
2023-02-12T11:26:20.036Z,6.46
2023-02-12T11:28:55.889Z,6.52
2023-02-12T11:31:33.896Z,6.42
2023-02-12T11:34:04.566Z,6.50
2023-02-12T11:36:37.518Z,6.40
2023-02-12T11:39:07.910Z,6.46
2023-02-12T11:41:42.374Z,6.36
2023-02-12T11:44:22.938Z,6.40
2023-02-12T11:46:56.672Z,6.40
2023-02-12T11:49:49.190Z,6.52
2023-02-12T11:52:31.825Z,6.60
2023-02-12T11:55:06.716Z,6.60
2023-02-12T11:57:43.373Z,6.70
2023-02-12T12:00:20.244Z,6.80
2023-02-12T12:02:58.426Z,6.90
2023-02-12T12:05:35.782Z,6.90
2023-02-12T12:08:16.877Z,6.90
2023-02-12T12:10:52.324Z,6.80
2023-02-12T12:13:33.785Z,6.60
2023-02-12T12:16:33.418Z,6.48
2023-02-12T12:19:34.249Z,6.36
2023-02-12T12:22:42.641Z,6.20
2023-02-12T12:25:31.860Z,6.10
2023-02-12T12:28:44.400Z,6.00
2023-02-12T12:31:28.904Z,5.80
2023-02-12T12:34:10.555Z,5.60
2023-02-12T12:36:55.901Z,5.42
2023-02-12T12:40:28.018Z,5.30
2023-02-12T12:43:26.428Z,5.10
2023-02-12T12:46:26.831Z,5.10
2023-02-12T12:49:32.427Z,5.00
2023-02-12T12:52:27.530Z,4.92
2023-02-12T12:55:22.813Z,4.90
2023-02-12T12:58:13.321Z,4.90
2023-02-12T13:01:17.641Z,4.90
2023-02-12T13:04:52.571Z,4.80
2023-02-12T13:07:44.658Z,4.80
2023-02-12T13:10:48.561Z,4.80
2023-02-12T13:13:31.590Z,4.70
2023-02-12T13:16:33.649Z,4.70
2023-02-12T13:20:00.448Z,4.76
2023-02-12T13:22:42.891Z,4.80
2023-02-12T13:25:42.708Z,4.80
2023-02-12T13:28:24.719Z,4.80
2023-02-12T13:30:56.032Z,4.72
2023-02-12T13:33:43.610Z,4.66
2023-02-12T13:36:15.127Z,4.60
2023-02-12T13:39:19.248Z,4.60
2023-02-12T13:42:02.449Z,4.60
2023-02-12T13:45:18.249Z,4.60
2023-02-12T13:48:13.914Z,4.60
2023-02-12T13:51:01.405Z,4.50
2023-02-12T13:54:12.922Z,4.50
2023-02-12T13:56:56.502Z,4.40
2023-02-12T13:59:34.333Z,4.36
2023-02-12T14:02:29.493Z,4.30
2023-02-12T14:05:01.635Z,4.30
2023-02-12T14:07:47.729Z,4.20
2023-02-12T14:10:37.105Z,4.20
2023-02-12T14:13:27.982Z,4.20
2023-02-12T14:15:59.028Z,4.20
2023-02-12T14:18:36.586Z,4.30
2023-02-12T14:21:35.298Z,4.30
2023-02-12T14:24:36.782Z,4.30
2023-02-12T14:27:19.552Z,4.40
2023-02-12T14:30:11.282Z,4.40
2023-02-12T14:32:55.515Z,4.40
2023-02-12T14:35:49.821Z,4.50
2023-02-12T14:38:20.558Z,4.50
2023-02-12T14:40:51.051Z,4.50
2023-02-12T14:43:56.005Z,4.60
2023-02-12T14:46:23.862Z,4.60
2023-02-12T14:49:06.312Z,4.70
2023-02-12T14:51:54.961Z,4.70
2023-02-12T14:54:54.805Z,4.78
2023-02-12T14:57:41.779Z,4.80
2023-02-12T15:00:18.607Z,4.80
2023-02-12T15:03:07.505Z,4.80
2023-02-12T15:05:50.620Z,4.90
2023-02-12T15:08:46.773Z,4.90
2023-02-12T15:11:47.244Z,4.90
2023-02-12T15:14:30.971Z,4.90
2023-02-12T15:17:18.157Z,4.90
2023-02-12T15:19:58.283Z,4.90
2023-02-12T15:22:41.071Z,4.90
2023-02-12T15:25:32.809Z,4.88
2023-02-12T15:28:23.099Z,4.90
2023-02-12T15:30:54.726Z,4.90
2023-02-12T15:33:33.950Z,4.88
2023-02-12T15:36:04.308Z,4.90
2023-02-12T15:38:37.565Z,4.90
2023-02-12T15:41:06.983Z,4.90
2023-02-12T15:43:41.414Z,4.90
2023-02-12T15:46:18.455Z,4.90
2023-02-12T15:48:46.559Z,4.90
2023-02-12T15:51:26.589Z,4.90
2023-02-12T15:53:55.258Z,4.90
2023-02-12T15:56:25.990Z,4.90
2023-02-12T15:59:00.540Z,4.90
2023-02-12T16:01:32.635Z,4.90
2023-02-12T16:04:07.442Z,4.90
2023-02-12T16:06:39.661Z,4.90
2023-02-12T16:09:17.227Z,4.90
2023-02-12T16:11:48.144Z,4.90
2023-02-12T16:14:32.121Z,4.90
2023-02-12T16:16:59.972Z,5.00
2023-02-12T16:19:37.136Z,5.00
2023-02-12T16:22:05.045Z,5.00
2023-02-12T16:24:46.303Z,4.94
2023-02-12T16:27:23.135Z,5.00
2023-02-12T16:29:59.750Z,5.00
2023-02-12T16:32:41.394Z,5.10
2023-02-12T16:35:09.449Z,5.10
2023-02-12T16:37:37.269Z,5.10
2023-02-12T16:40:14.327Z,5.10
2023-02-12T16:42:48.018Z,5.10
2023-02-12T16:45:26.174Z,5.10
2023-02-12T16:47:59.429Z,5.12
2023-02-12T16:50:34.276Z,5.20
2023-02-12T16:53:09.057Z,5.20
2023-02-12T16:55:36.910Z,5.20
2023-02-12T16:58:04.769Z,5.20
2023-02-12T17:00:32.743Z,5.20
2023-02-12T17:03:00.648Z,5.20
2023-02-12T17:05:28.644Z,5.26
2023-02-12T17:07:56.530Z,5.26
2023-02-12T17:10:24.402Z,5.24
2023-02-12T17:12:53.231Z,5.26
2023-02-12T17:15:28.560Z,5.22
2023-02-12T17:17:56.466Z,5.24
2023-02-12T17:20:24.452Z,5.22
2023-02-12T17:22:57.938Z,5.26
2023-02-12T17:25:26.744Z,5.26
2023-02-12T17:27:54.604Z,5.22
2023-02-12T17:30:24.348Z,5.22
2023-02-12T17:32:52.684Z,5.22
2023-02-12T17:35:20.512Z,5.24
2023-02-12T17:37:48.382Z,5.20
2023-02-12T17:40:20.176Z,5.20
2023-02-12T17:42:48.183Z,5.20
2023-02-12T17:45:17.421Z,5.20
2023-02-12T17:47:45.250Z,5.20
2023-02-12T17:50:15.304Z,5.20
2023-02-12T17:52:43.478Z,5.20
2023-02-12T17:55:13.992Z,5.26
2023-02-12T17:57:41.891Z,5.30
2023-02-12T18:00:12.780Z,5.30
2023-02-12T18:02:40.701Z,5.30
2023-02-12T18:05:09.058Z,5.40
2023-02-12T18:07:38.047Z,5.40
2023-02-12T18:10:10.120Z,5.40
2023-02-12T18:12:39.664Z,5.50
2023-02-12T18:15:09.723Z,5.50
2023-02-12T18:17:37.739Z,5.50
2023-02-12T18:20:06.867Z,5.50
2023-02-12T18:22:35.799Z,5.60
2023-02-12T18:25:04.221Z,5.60
2023-02-12T18:27:32.104Z,5.60
2023-02-12T18:29:59.995Z,5.60
2023-02-12T18:32:28.111Z,5.62
2023-02-12T18:34:56.131Z,5.64
2023-02-12T18:37:24.038Z,5.70
2023-02-12T18:39:52.172Z,5.70
2023-02-12T18:42:20.261Z,5.70
2023-02-12T18:44:49.745Z,5.80
2023-02-12T18:47:19.594Z,5.80
2023-02-12T18:49:47.786Z,5.80
2023-02-12T18:52:15.778Z,5.80
2023-02-12T18:54:44.686Z,5.82
2023-02-12T18:57:12.941Z,5.90
2023-02-12T18:59:41.002Z,5.90
2023-02-12T19:02:15.514Z,5.90
2023-02-12T19:04:43.703Z,6.00
2023-02-12T19:07:11.766Z,6.00
2023-02-12T19:09:41.708Z,6.00
2023-02-12T19:12:10.956Z,6.00
2023-02-12T19:14:38.916Z,6.00
2023-02-12T19:17:07.562Z,6.00
2023-02-12T19:19:35.519Z,6.04
2023-02-12T19:22:06.802Z,6.06
2023-02-12T19:24:46.341Z,6.08
2023-02-12T19:27:22.792Z,6.10
2023-02-12T19:29:51.129Z,6.10
2023-02-12T19:32:21.314Z,6.10
2023-02-12T19:34:49.968Z,6.10
2023-02-12T19:37:18.436Z,6.10
2023-02-12T19:39:46.492Z,6.18
2023-02-12T19:42:17.482Z,6.20
2023-02-12T19:44:56.623Z,6.20
2023-02-12T19:47:27.342Z,6.22
2023-02-12T19:49:57.516Z,6.26
2023-02-12T19:52:27.595Z,6.30
2023-02-12T19:54:56.268Z,6.30
2023-02-12T19:57:25.819Z,6.30
2023-02-12T19:59:55.093Z,6.30
2023-02-12T20:02:23.278Z,6.38
2023-02-12T20:04:53.675Z,6.40
2023-02-12T20:07:25.123Z,6.40
2023-02-12T20:09:55.805Z,6.40
2023-02-12T20:12:33.923Z,6.40
2023-02-12T20:15:04.612Z,6.46
2023-02-12T20:17:32.773Z,6.48
2023-02-12T20:20:00.821Z,6.50
2023-02-12T20:22:31.499Z,6.50
2023-02-12T20:25:02.006Z,6.50
2023-02-12T20:27:30.655Z,6.50
2023-02-12T20:29:59.060Z,6.50
2023-02-12T20:32:36.578Z,6.50
2023-02-12T20:35:06.321Z,6.60
2023-02-12T20:37:38.949Z,6.60
2023-02-12T20:40:10.102Z,6.60
2023-02-12T20:42:39.806Z,6.60
2023-02-12T20:45:29.841Z,6.60
2023-02-12T20:48:00.577Z,6.60
2023-02-12T20:50:28.845Z,6.60
2023-02-12T20:52:57.191Z,6.60
2023-02-12T20:55:25.571Z,6.60
2023-02-12T20:57:55.253Z,6.60
2023-02-12T21:00:24.585Z,6.60
2023-02-12T21:02:58.397Z,6.60
2023-02-12T21:05:26.316Z,6.60
2023-02-12T21:07:54.320Z,6.60
2023-02-12T21:10:23.540Z,6.60
2023-02-12T21:12:51.372Z,6.60
2023-02-12T21:15:22.316Z,6.60
2023-02-12T21:17:50.375Z,6.60
2023-02-12T21:20:21.132Z,6.60
2023-02-12T21:22:49.103Z,6.60
2023-02-12T21:25:17.508Z,6.60
2023-02-12T21:27:47.871Z,6.60
2023-02-12T21:30:16.287Z,6.60
2023-02-12T21:32:44.397Z,6.60
2023-02-12T21:35:12.328Z,6.60
2023-02-12T21:37:43.127Z,6.60
2023-02-12T21:40:11.428Z,6.60
2023-02-12T21:42:40.586Z,6.60
2023-02-12T21:45:11.487Z,6.60
2023-02-12T21:47:39.451Z,6.60
2023-02-12T21:50:09.377Z,6.60
2023-02-12T21:52:41.338Z,6.60
2023-02-12T21:55:12.877Z,6.60
2023-02-12T21:57:40.802Z,6.60
2023-02-12T22:00:12.641Z,6.56
2023-02-12T22:02:40.805Z,6.56
2023-02-12T22:05:17.996Z,6.56
2023-02-12T22:07:50.014Z,6.50
2023-02-12T22:10:18.301Z,6.50
2023-02-12T22:12:46.099Z,6.50
2023-02-12T22:15:14.093Z,6.50
2023-02-12T22:17:41.881Z,6.50
2023-02-12T22:20:10.346Z,6.50
2023-02-12T22:22:38.411Z,6.50
2023-02-12T22:25:06.633Z,6.50
2023-02-12T22:27:35.074Z,6.50
2023-02-12T22:30:03.386Z,6.46
2023-02-12T22:32:31.358Z,6.48
2023-02-12T22:34:59.320Z,6.46
2023-02-12T22:37:27.160Z,6.46
2023-02-12T22:39:54.976Z,6.50
2023-02-12T22:42:22.768Z,6.46
2023-02-12T22:44:50.666Z,6.44
2023-02-12T22:47:18.487Z,6.40
2023-02-12T22:49:46.287Z,6.40
2023-02-12T22:52:14.104Z,6.40
2023-02-12T22:54:41.962Z,6.40
2023-02-12T22:57:09.792Z,6.40
2023-02-12T22:59:37.753Z,6.40
2023-02-12T23:02:05.544Z,6.38
2023-02-12T23:04:33.371Z,6.30
2023-02-12T23:07:01.235Z,6.30
2023-02-12T23:09:29.087Z,6.30
2023-02-12T23:11:56.982Z,6.22
2023-02-12T23:14:24.832Z,6.20
2023-02-12T23:16:52.665Z,6.20
2023-02-12T23:19:20.531Z,6.10
2023-02-12T23:21:48.576Z,6.10
2023-02-12T23:24:16.487Z,6.06
2023-02-12T23:26:44.377Z,6.00
2023-02-12T23:29:12.764Z,6.00
2023-02-12T23:31:40.647Z,6.00
2023-02-12T23:34:08.964Z,5.90
2023-02-12T23:36:36.765Z,5.90
2023-02-12T23:39:06.097Z,5.90
2023-02-12T23:41:34.733Z,5.90
2023-02-12T23:44:06.485Z,5.90
2023-02-12T23:46:34.416Z,5.90
2023-02-12T23:49:02.348Z,5.90
2023-02-12T23:51:31.478Z,5.90
2023-02-12T23:53:59.446Z,5.90
2023-02-12T23:56:28.010Z,5.90
2023-02-12T23:58:57.596Z,5.90
